Bryce Canyon Airport
KBCE : now visible

Airfield :











YOU CAN JOIN US ON...

 
LOGIN :

Register | Disclaimer

   EN    FR    IT 

 









Legend :    VFR   Marginal VFR   IFR   Intensive IFR   Very Intensive IFR
Visi :
Ceiling :
>= 8 km
>= 3000ft
5 to 8 km
1000 to 3000 ft
1500m to 5 km
500 to 1000 ft
800 to 1500m
200 to 500 ft
< 800m
< 200 ft
Symbols :   Thunderstorms  Fog  Heavy snow  Heavy precipitations  Wind > 20 kt






- Airport Elevation : 7590 ft


KBCE - Bryce Canyon

CURRENT METAR :
  • 190453Z AUTO 01006KT 10SM SCT110 20/07 A3048 RMK AO2 SLP180 T02000067

EXPIRED METARs :
  • 190353Z AUTO 31010G17KT 10SM CLR 19/08 A3047 RMK AO2 SLP181 T01890083
  • 190253Z AUTO 30012KT 10SM CLR 21/07 A3045 RMK AO2 SLP171 T02110072 53009
  • 190153Z AUTO 24009KT 10SM BKN100 23/06 A3043 RMK AO2 SLP167 T02280061
  • 190053Z AUTO 28004KT 10SM BKN120 24/05 A3041 RMK AO2 SLP165 T02440050

TAF KBCE
Valid from the 19 at 00:00 until the 20 at 00:00 UTC


182338Z 1900/1924 32012KT P6SM VCSH BKN100 BKN120
FM190300 29006KT P6SM SCT120
FM191800 30010KT P6SM -SHRA VCTS SCT100CB BKN120
KZLC FIR / North America



MET'MAP, your aeronautical weather chart ! - Copyright ORBIFLY December 2007 - Disclaimer

ORBIFLY MET'MAP TEAM :

Programming & Development : Alexandra Zaïnal
Original concept : Baudouin d'Aumeries
Technical & hardware support : Manuel Goepfert
Assistance : Marc-Olivier Méhu




SOURCES & CREDITS :

   NOAA       Earth
Advisory